Terminal Aerodrome Forecast
Issued by NWS

Home | Current Version | Previous Version | Graphics & Text | Print | Product List | Glossary On
Versions: 1 2 3 4 5 6 7 8 9 10 11 12 13 14
000
FTUS41 KCLE 280529
TAFFDY
TAF
KFDY 280529Z 2806/2906 29004KT P6SM SCT090
      TEMPO 2806/2810 5SM BR
     FM281000 33003KT 5SM BR SCT250
     FM281300 04006KT P6SM FEW035
     FM281700 08008KT P6SM SCT040
     FM290000 08007KT P6SM FEW060=

USA.gov is the U.S. government's official web portal to all federal, state and local government web resources and services.